VTK609 UNNT-UTAA
Flight info
| Callsign | VTK609 |
|---|---|
| Flight time | 3h 51m |
| Altitude | 38000 |
| Route | ALIRO1K ALIRO R484 MISLU A366 LAGMO T649 ARNIR L51 INTAL W351 ADRIK L51 ALZIS M75 PIDWO L985 DARVA/N0454F380 A370 MAVAX B359 PODOK POD11A |
| Aircraft | A319/M-SDE3FGHIRWY/LB1 |
Departure
| Time | 2026-05-06 09:44 |
|---|---|
| Airport | Novosibirsk Tolmachevo Airport (UNNT) |
Arrival
| Time | 2026-05-06 13:35 |
|---|---|
| Airport | Ashgabat International Airport (UTAA) |
| Time | Latitude | Longitude | Altitude | Speed | Heading |
|---|---|---|---|---|---|
| 2026-05-06 09:28 | 55.01142 | 82.66745 | 373 ft | 0 kts | 171° |
| 2026-05-06 09:28 | 55.01143 | 82.66745 | 373 ft | 0 kts | 171° |
| 2026-05-06 09:40 | 55.01129 | 82.66749 | 373 ft | 4 kts | 171° |
| 2026-05-06 09:41 | 55.01103 | 82.66727 | 373 ft | 5 kts | 230° |
| 2026-05-06 09:41 | 55.01111 | 82.66668 | 373 ft | 6 kts | 320° |
| 2026-05-06 09:41 | 55.01158 | 82.66649 | 373 ft | 8 kts | 351° |
| 2026-05-06 09:41 | 55.01218 | 82.66632 | 373 ft | 10 kts | 351° |
| 2026-05-06 09:42 | 55.01284 | 82.66614 | 373 ft | 9 kts | 352° |
| 2026-05-06 09:42 | 55.01347 | 82.66598 | 374 ft | 8 kts | 352° |
| 2026-05-06 09:42 | 55.01380 | 82.66579 | 375 ft | 3 kts | 307° |
| 2026-05-06 09:42 | 55.01379 | 82.66541 | 375 ft | 0 kts | 258° |
| 2026-05-06 09:43 | 55.01379 | 82.66540 | 375 ft | 1 kts | 258° |
| 2026-05-06 09:43 | 55.01359 | 82.66321 | 373 ft | 50 kts | 261° |
| 2026-05-06 09:43 | 55.01268 | 82.65329 | 373 ft | 113 kts | 261° |
| 2026-05-06 09:44 | 55.01119 | 82.63686 | 393 ft | 157 kts | 261° |
| 2026-05-06 09:44 | 55.00959 | 82.61829 | 939 ft | 152 kts | 261° |
| 2026-05-06 09:44 | 55.00813 | 82.60028 | 1631 ft | 148 kts | 259° |
| 2026-05-06 09:44 | 55.00659 | 82.58179 | 2023 ft | 161 kts | 260° |
| 2026-05-06 09:45 | 55.00482 | 82.56136 | 2323 ft | 182 kts | 259° |
| 2026-05-06 09:45 | 55.00293 | 82.53853 | 2731 ft | 199 kts | 267° |
| 2026-05-06 09:45 | 55.00675 | 82.51389 | 3092 ft | 225 kts | 292° |
| 2026-05-06 09:45 | 55.01349 | 82.48876 | 3838 ft | 231 kts | 291° |
| 2026-05-06 09:46 | 55.02025 | 82.46316 | 4780 ft | 232 kts | 292° |
| 2026-05-06 09:46 | 55.02694 | 82.43756 | 5719 ft | 233 kts | 291° |
| 2026-05-06 09:46 | 55.03365 | 82.41175 | 6584 ft | 237 kts | 291° |
| 2026-05-06 09:46 | 55.04000 | 82.38504 | 6860 ft | 239 kts | 283° |
| 2026-05-06 09:47 | 55.04211 | 82.35658 | 6876 ft | 242 kts | 266° |
| 2026-05-06 09:47 | 55.03957 | 82.32702 | 6880 ft | 249 kts | 259° |
| 2026-05-06 09:47 | 55.03643 | 82.29729 | 6874 ft | 250 kts | 259° |
| 2026-05-06 09:47 | 55.03331 | 82.26734 | 6871 ft | 251 kts | 259° |
| 2026-05-06 09:48 | 55.03020 | 82.23735 | 6868 ft | 251 kts | 259° |
| 2026-05-06 09:48 | 55.02710 | 82.20732 | 6870 ft | 251 kts | 259° |
| 2026-05-06 09:48 | 55.02404 | 82.17752 | 6876 ft | 250 kts | 259° |
| 2026-05-06 09:48 | 55.02096 | 82.14766 | 6870 ft | 250 kts | 259° |
| 2026-05-06 09:49 | 55.01787 | 82.11779 | 6874 ft | 250 kts | 259° |
| 2026-05-06 09:49 | 55.01479 | 82.08831 | 6868 ft | 251 kts | 259° |
| 2026-05-06 09:49 | 55.01167 | 82.05841 | 6873 ft | 251 kts | 259° |
| 2026-05-06 09:49 | 55.00688 | 82.02931 | 6864 ft | 251 kts | 243° |
| 2026-05-06 09:50 | 54.99555 | 82.00631 | 6865 ft | 254 kts | 219° |
| 2026-05-06 09:50 | 54.97868 | 81.99486 | 7313 ft | 272 kts | 192° |
| 2026-05-06 09:50 | 54.95960 | 81.99387 | 8258 ft | 275 kts | 187° |
| 2026-05-06 09:50 | 54.94042 | 81.99362 | 9152 ft | 277 kts | 186° |
| 2026-05-06 09:51 | 54.92109 | 81.99340 | 9973 ft | 279 kts | 187° |
| 2026-05-06 09:51 | 54.90101 | 81.99313 | 10327 ft | 299 kts | 186° |
| 2026-05-06 09:51 | 54.87940 | 81.99277 | 10505 ft | 323 kts | 186° |
| 2026-05-06 09:51 | 54.85635 | 81.99248 | 10905 ft | 336 kts | 186° |
| 2026-05-06 09:52 | 54.83284 | 81.99231 | 11551 ft | 340 kts | 186° |
| 2026-05-06 09:52 | 54.80908 | 81.99225 | 12242 ft | 343 kts | 186° |
| 2026-05-06 09:52 | 54.78510 | 81.99224 | 12954 ft | 346 kts | 186° |
| 2026-05-06 09:52 | 54.76092 | 81.99221 | 13642 ft | 349 kts | 187° |
| 2026-05-06 09:53 | 54.73647 | 81.99215 | 14221 ft | 352 kts | 186° |
| 2026-05-06 09:53 | 54.71185 | 81.99207 | 14806 ft | 356 kts | 186° |
| 2026-05-06 09:53 | 54.68700 | 81.99197 | 15391 ft | 358 kts | 186° |
| 2026-05-06 09:53 | 54.66193 | 81.99196 | 15977 ft | 363 kts | 184° |
| 2026-05-06 09:54 | 54.63662 | 81.99932 | 16538 ft | 379 kts | 167° |
| 2026-05-06 09:54 | 54.61283 | 82.02078 | 17124 ft | 396 kts | 148° |
| 2026-05-06 09:54 | 54.59368 | 82.05599 | 17710 ft | 413 kts | 128° |
| 2026-05-06 09:54 | 54.58203 | 82.10216 | 18295 ft | 427 kts | 107° |
| 2026-05-06 09:55 | 54.57544 | 82.15246 | 18834 ft | 431 kts | 105° |
| 2026-05-06 09:55 | 54.56899 | 82.20305 | 19376 ft | 435 kts | 105° |
| 2026-05-06 09:55 | 54.56245 | 82.25421 | 19930 ft | 438 kts | 106° |
| 2026-05-06 09:55 | 54.55580 | 82.30557 | 20472 ft | 442 kts | 106° |
| 2026-05-06 09:56 | 54.54838 | 82.35706 | 20974 ft | 442 kts | 113° |
| 2026-05-06 09:56 | 54.53470 | 82.40394 | 21454 ft | 435 kts | 131° |
| 2026-05-06 09:56 | 54.51440 | 82.44155 | 21897 ft | 426 kts | 148° |
| 2026-05-06 09:56 | 54.48934 | 82.46756 | 22347 ft | 417 kts | 164° |
| 2026-05-06 09:57 | 54.46220 | 82.48063 | 22789 ft | 407 kts | 179° |
| 2026-05-06 09:57 | 54.43424 | 82.48135 | 23249 ft | 398 kts | 193° |
| 2026-05-06 09:57 | 54.40738 | 82.47148 | 23672 ft | 395 kts | 200° |
| 2026-05-06 09:57 | 54.38068 | 82.45968 | 24076 ft | 397 kts | 200° |
| 2026-05-06 09:58 | 54.35380 | 82.44775 | 24472 ft | 399 kts | 200° |
| 2026-05-06 09:58 | 54.32686 | 82.43579 | 24850 ft | 401 kts | 200° |
| 2026-05-06 09:58 | 54.29985 | 82.42383 | 25246 ft | 402 kts | 200° |
| 2026-05-06 09:58 | 54.27269 | 82.41184 | 25632 ft | 404 kts | 200° |
| 2026-05-06 09:59 | 54.24542 | 82.39980 | 25958 ft | 406 kts | 200° |
| 2026-05-06 09:59 | 54.21789 | 82.38772 | 26309 ft | 409 kts | 200° |
| 2026-05-06 09:59 | 54.19026 | 82.37564 | 26675 ft | 411 kts | 200° |
| 2026-05-06 09:59 | 54.16250 | 82.36352 | 27037 ft | 413 kts | 200° |
| 2026-05-06 10:00 | 54.13462 | 82.35136 | 27395 ft | 415 kts | 199° |
| 2026-05-06 10:00 | 54.10661 | 82.33919 | 27756 ft | 416 kts | 199° |
| 2026-05-06 10:00 | 54.07848 | 82.32695 | 28111 ft | 418 kts | 199° |
| 2026-05-06 10:00 | 54.05025 | 82.31465 | 28454 ft | 420 kts | 199° |
| 2026-05-06 10:01 | 54.02186 | 82.30218 | 28814 ft | 421 kts | 200° |
| 2026-05-06 10:01 | 53.99367 | 82.28920 | 29252 ft | 419 kts | 201° |
| 2026-05-06 10:01 | 53.96562 | 82.27577 | 29675 ft | 419 kts | 201° |
| 2026-05-06 10:01 | 53.93764 | 82.26210 | 30109 ft | 418 kts | 201° |
| 2026-05-06 10:02 | 53.90975 | 82.24839 | 30517 ft | 417 kts | 201° |
| 2026-05-06 10:02 | 53.88191 | 82.23482 | 30925 ft | 416 kts | 201° |
| 2026-05-06 10:02 | 53.85405 | 82.22137 | 31347 ft | 415 kts | 201° |
| 2026-05-06 10:02 | 53.82629 | 82.20814 | 31769 ft | 414 kts | 201° |
| 2026-05-06 10:03 | 53.79859 | 82.19500 | 32192 ft | 413 kts | 201° |
| 2026-05-06 10:03 | 53.77094 | 82.18193 | 32611 ft | 412 kts | 201° |
| 2026-05-06 10:03 | 53.74336 | 82.16892 | 33038 ft | 411 kts | 201° |
| 2026-05-06 10:03 | 53.71587 | 82.15600 | 33433 ft | 411 kts | 201° |
| 2026-05-06 10:04 | 53.68827 | 82.14301 | 33827 ft | 411 kts | 201° |
| 2026-05-06 10:04 | 53.66075 | 82.13004 | 34170 ft | 410 kts | 201° |
| 2026-05-06 10:04 | 53.63325 | 82.11706 | 34490 ft | 411 kts | 201° |
| 2026-05-06 10:04 | 53.60607 | 82.10421 | 34768 ft | 411 kts | 201° |
| 2026-05-06 10:05 | 53.57851 | 82.09124 | 35042 ft | 411 kts | 201° |
| 2026-05-06 10:05 | 53.55092 | 82.07830 | 35331 ft | 412 kts | 201° |
| 2026-05-06 10:05 | 53.52328 | 82.06541 | 35604 ft | 413 kts | 201° |
| 2026-05-06 10:05 | 53.49559 | 82.05251 | 35828 ft | 414 kts | 201° |
| 2026-05-06 10:06 | 53.43962 | 82.02633 | 35897 ft | 422 kts | 201° |
| 2026-05-06 10:06 | 53.38291 | 81.99990 | 35896 ft | 424 kts | 201° |
| 2026-05-06 10:07 | 53.32608 | 81.97353 | 35895 ft | 424 kts | 201° |
| 2026-05-06 10:07 | 53.26921 | 81.94731 | 35898 ft | 424 kts | 201° |
| 2026-05-06 10:08 | 53.21227 | 81.92116 | 35884 ft | 424 kts | 201° |
| 2026-05-06 10:08 | 53.15540 | 81.89516 | 35902 ft | 424 kts | 201° |
| 2026-05-06 10:09 | 53.10803 | 81.87340 | 35907 ft | 425 kts | 201° |
| 2026-05-06 10:09 | 53.05108 | 81.84723 | 35914 ft | 425 kts | 201° |
| 2026-05-06 10:10 | 52.99369 | 81.82099 | 35919 ft | 425 kts | 201° |
| 2026-05-06 10:10 | 52.93704 | 81.79521 | 35898 ft | 425 kts | 201° |
| 2026-05-06 10:11 | 52.88018 | 81.76813 | 35906 ft | 421 kts | 207° |
| 2026-05-06 10:11 | 52.83112 | 81.71926 | 35913 ft | 407 kts | 226° |
| 2026-05-06 10:12 | 52.79625 | 81.64724 | 35913 ft | 400 kts | 240° |
| 2026-05-06 10:12 | 52.76642 | 81.56950 | 35913 ft | 401 kts | 240° |
| 2026-05-06 10:13 | 52.73643 | 81.49185 | 35918 ft | 401 kts | 240° |
| 2026-05-06 10:13 | 52.70640 | 81.41424 | 35922 ft | 401 kts | 240° |
| 2026-05-06 10:14 | 52.67637 | 81.33662 | 35897 ft | 402 kts | 240° |
| 2026-05-06 10:14 | 52.64624 | 81.25904 | 35905 ft | 402 kts | 240° |
| 2026-05-06 10:15 | 52.61600 | 81.18171 | 35912 ft | 402 kts | 240° |
| 2026-05-06 10:15 | 52.58576 | 81.10444 | 35920 ft | 402 kts | 240° |
| 2026-05-06 10:16 | 52.55544 | 81.02718 | 35930 ft | 402 kts | 239° |
| 2026-05-06 10:16 | 52.52506 | 80.95006 | 35923 ft | 402 kts | 239° |
| 2026-05-06 10:17 | 52.49477 | 80.87341 | 35929 ft | 403 kts | 239° |
| 2026-05-06 10:17 | 52.46402 | 80.79574 | 35943 ft | 403 kts | 239° |
| 2026-05-06 10:18 | 52.43360 | 80.71920 | 35944 ft | 404 kts | 239° |
| 2026-05-06 10:18 | 52.40267 | 80.64159 | 35947 ft | 404 kts | 239° |
| 2026-05-06 10:19 | 52.37203 | 80.56517 | 35941 ft | 404 kts | 239° |
| 2026-05-06 10:19 | 52.34117 | 80.48832 | 35940 ft | 404 kts | 239° |
| 2026-05-06 10:20 | 52.31029 | 80.41138 | 35951 ft | 405 kts | 239° |
| 2026-05-06 10:20 | 52.27930 | 80.33454 | 35955 ft | 405 kts | 239° |
| 2026-05-06 10:21 | 52.24826 | 80.25779 | 35966 ft | 405 kts | 239° |
| 2026-05-06 10:21 | 52.21718 | 80.18110 | 35968 ft | 405 kts | 239° |
| 2026-05-06 10:22 | 52.18604 | 80.10454 | 35970 ft | 405 kts | 239° |
| 2026-05-06 10:22 | 52.15479 | 80.02811 | 35959 ft | 405 kts | 239° |
| 2026-05-06 10:23 | 52.12352 | 79.95180 | 35969 ft | 405 kts | 239° |
| 2026-05-06 10:23 | 52.09217 | 79.87549 | 35970 ft | 405 kts | 239° |
| 2026-05-06 10:24 | 52.06080 | 79.79937 | 35956 ft | 405 kts | 239° |
| 2026-05-06 10:24 | 52.02935 | 79.72338 | 35923 ft | 405 kts | 239° |
| 2026-05-06 10:25 | 51.99792 | 79.64743 | 35971 ft | 405 kts | 239° |
| 2026-05-06 10:25 | 51.96634 | 79.57155 | 35971 ft | 405 kts | 238° |
| 2026-05-06 10:26 | 51.93479 | 79.49590 | 35973 ft | 405 kts | 238° |
| 2026-05-06 10:26 | 51.90321 | 79.42034 | 35977 ft | 405 kts | 238° |
| 2026-05-06 10:27 | 51.87158 | 79.34477 | 35974 ft | 405 kts | 238° |
| 2026-05-06 10:27 | 51.83987 | 79.26948 | 35978 ft | 405 kts | 238° |
| 2026-05-06 10:28 | 51.81240 | 79.19053 | 35974 ft | 403 kts | 244° |
| 2026-05-06 10:28 | 51.78645 | 79.11027 | 35971 ft | 403 kts | 244° |
| 2026-05-06 10:29 | 51.76061 | 79.03052 | 35942 ft | 403 kts | 244° |
| 2026-05-06 10:29 | 51.73445 | 78.95042 | 35951 ft | 404 kts | 244° |
| 2026-05-06 10:30 | 51.70818 | 78.87039 | 35962 ft | 404 kts | 244° |
| 2026-05-06 10:30 | 51.68189 | 78.79046 | 35966 ft | 404 kts | 244° |
| 2026-05-06 10:31 | 51.65560 | 78.71048 | 35967 ft | 404 kts | 244° |
| 2026-05-06 10:31 | 51.62925 | 78.63050 | 35966 ft | 405 kts | 244° |
| 2026-05-06 10:32 | 51.60273 | 78.55052 | 35975 ft | 405 kts | 244° |
| 2026-05-06 10:32 | 51.57617 | 78.47066 | 35980 ft | 405 kts | 244° |
| 2026-05-06 10:33 | 51.54953 | 78.39085 | 35985 ft | 405 kts | 244° |
| 2026-05-06 10:33 | 51.52278 | 78.31112 | 35982 ft | 406 kts | 244° |
| 2026-05-06 10:34 | 51.49598 | 78.23132 | 35980 ft | 406 kts | 244° |
| 2026-05-06 10:34 | 51.46902 | 78.15155 | 35983 ft | 407 kts | 244° |
| 2026-05-06 10:35 | 51.44189 | 78.07179 | 35995 ft | 407 kts | 244° |
| 2026-05-06 10:35 | 51.41463 | 77.99213 | 35988 ft | 407 kts | 244° |
| 2026-05-06 10:36 | 51.38740 | 77.91257 | 35988 ft | 408 kts | 244° |
| 2026-05-06 10:36 | 51.36013 | 77.83293 | 35990 ft | 408 kts | 244° |
| 2026-05-06 10:37 | 51.33274 | 77.75321 | 35993 ft | 409 kts | 244° |
| 2026-05-06 10:37 | 51.30524 | 77.67364 | 36003 ft | 409 kts | 244° |
| 2026-05-06 10:38 | 51.27769 | 77.59408 | 36007 ft | 409 kts | 244° |
| 2026-05-06 10:38 | 51.24999 | 77.51463 | 35998 ft | 410 kts | 244° |
| 2026-05-06 10:39 | 51.22224 | 77.43502 | 35997 ft | 410 kts | 244° |
| 2026-05-06 10:39 | 51.19446 | 77.35538 | 36003 ft | 411 kts | 244° |
| 2026-05-06 10:40 | 51.16655 | 77.27578 | 36008 ft | 412 kts | 244° |
| 2026-05-06 10:40 | 51.13871 | 77.19620 | 36011 ft | 412 kts | 244° |
| 2026-05-06 10:41 | 51.11070 | 77.11655 | 36017 ft | 412 kts | 244° |
| 2026-05-06 10:41 | 51.08282 | 77.03745 | 35982 ft | 413 kts | 244° |
| 2026-05-06 10:42 | 51.05462 | 76.95770 | 35991 ft | 414 kts | 244° |
| 2026-05-06 10:42 | 51.02634 | 76.87798 | 35997 ft | 414 kts | 244° |
| 2026-05-06 10:43 | 50.99795 | 76.79825 | 36005 ft | 415 kts | 243° |
| 2026-05-06 10:44 | 50.95522 | 76.67876 | 36009 ft | 415 kts | 244° |
| 2026-05-06 10:44 | 50.92663 | 76.59913 | 36011 ft | 416 kts | 243° |
| 2026-05-06 10:45 | 50.89803 | 76.51936 | 36014 ft | 416 kts | 244° |
| 2026-05-06 10:45 | 50.86947 | 76.43963 | 36017 ft | 416 kts | 244° |
| 2026-05-06 10:46 | 50.84093 | 76.35988 | 36023 ft | 416 kts | 244° |
| 2026-05-06 10:46 | 50.81225 | 76.28017 | 36013 ft | 417 kts | 244° |
| 2026-05-06 10:47 | 50.78350 | 76.20059 | 36015 ft | 417 kts | 243° |
| 2026-05-06 10:47 | 50.75461 | 76.12107 | 36021 ft | 417 kts | 243° |
| 2026-05-06 10:48 | 50.72565 | 76.04148 | 36024 ft | 418 kts | 243° |
| 2026-05-06 10:48 | 50.69670 | 75.96201 | 36030 ft | 418 kts | 243° |
| 2026-05-06 10:49 | 50.66765 | 75.88256 | 36033 ft | 418 kts | 243° |
| 2026-05-06 10:49 | 50.63855 | 75.80330 | 36035 ft | 418 kts | 243° |
| 2026-05-06 10:50 | 50.60937 | 75.72406 | 36036 ft | 418 kts | 243° |
| 2026-05-06 10:50 | 50.58034 | 75.64556 | 36040 ft | 418 kts | 243° |
| 2026-05-06 10:51 | 50.55107 | 75.56667 | 36037 ft | 418 kts | 243° |
| 2026-05-06 10:51 | 50.52166 | 75.48797 | 36037 ft | 417 kts | 243° |
| 2026-05-06 10:52 | 50.49712 | 75.42263 | 36039 ft | 418 kts | 243° |
| 2026-05-06 10:52 | 50.46759 | 75.34411 | 36043 ft | 418 kts | 243° |
| 2026-05-06 10:53 | 50.43803 | 75.26564 | 36046 ft | 418 kts | 243° |
| 2026-05-06 10:53 | 50.40833 | 75.18722 | 36044 ft | 418 kts | 243° |
| 2026-05-06 10:54 | 50.37855 | 75.10906 | 36029 ft | 418 kts | 242° |
| 2026-05-06 10:54 | 50.34830 | 75.03113 | 36023 ft | 418 kts | 242° |
| 2026-05-06 10:55 | 50.31792 | 74.95344 | 36031 ft | 419 kts | 242° |
| 2026-05-06 10:55 | 50.28750 | 74.87577 | 36037 ft | 419 kts | 242° |
| 2026-05-06 10:56 | 50.25706 | 74.79805 | 36041 ft | 419 kts | 242° |
| 2026-05-06 10:56 | 50.22665 | 74.72044 | 36053 ft | 419 kts | 242° |
| 2026-05-06 10:57 | 50.19613 | 74.64296 | 36061 ft | 419 kts | 242° |
| 2026-05-06 10:57 | 50.16553 | 74.56554 | 36069 ft | 418 kts | 242° |
| 2026-05-06 10:58 | 50.13497 | 74.48849 | 36068 ft | 418 kts | 242° |
| 2026-05-06 10:58 | 50.10439 | 74.41160 | 36071 ft | 417 kts | 242° |
| 2026-05-06 10:59 | 50.07379 | 74.33474 | 36070 ft | 417 kts | 242° |
| 2026-05-06 10:59 | 50.04334 | 74.25799 | 36069 ft | 416 kts | 242° |
| 2026-05-06 11:00 | 50.01302 | 74.18135 | 36051 ft | 416 kts | 242° |
| 2026-05-06 11:00 | 49.98258 | 74.10472 | 36054 ft | 417 kts | 242° |
| 2026-05-06 11:01 | 49.95195 | 74.02818 | 36057 ft | 417 kts | 242° |
| 2026-05-06 11:01 | 49.92129 | 73.95152 | 36068 ft | 418 kts | 242° |
| 2026-05-06 11:02 | 49.89083 | 73.87545 | 36062 ft | 417 kts | 242° |
| 2026-05-06 11:02 | 49.86008 | 73.79914 | 36075 ft | 417 kts | 242° |
| 2026-05-06 11:03 | 49.82929 | 73.72299 | 36069 ft | 417 kts | 242° |
| 2026-05-06 11:03 | 49.79849 | 73.64699 | 36073 ft | 417 kts | 242° |
| 2026-05-06 11:04 | 49.76765 | 73.57099 | 36066 ft | 417 kts | 242° |
| 2026-05-06 11:04 | 49.73678 | 73.49510 | 36061 ft | 416 kts | 242° |
| 2026-05-06 11:05 | 49.70584 | 73.41950 | 36060 ft | 416 kts | 242° |
| 2026-05-06 11:05 | 49.67727 | 73.34231 | 36069 ft | 412 kts | 248° |
| 2026-05-06 11:06 | 49.65247 | 73.26248 | 36048 ft | 413 kts | 248° |
| 2026-05-06 11:06 | 49.62738 | 73.18266 | 36049 ft | 414 kts | 248° |
| 2026-05-06 11:07 | 49.60209 | 73.10273 | 36050 ft | 415 kts | 248° |
| 2026-05-06 11:07 | 49.57680 | 73.02284 | 36058 ft | 415 kts | 248° |
| 2026-05-06 11:08 | 49.55146 | 72.94299 | 36062 ft | 415 kts | 248° |
| 2026-05-06 11:08 | 49.52601 | 72.86312 | 36061 ft | 415 kts | 248° |
| 2026-05-06 11:09 | 49.50058 | 72.78341 | 36061 ft | 415 kts | 248° |
| 2026-05-06 11:09 | 49.47511 | 72.70375 | 36045 ft | 416 kts | 249° |
| 2026-05-06 11:10 | 49.44942 | 72.62392 | 36038 ft | 417 kts | 249° |
| 2026-05-06 11:10 | 49.42364 | 72.54406 | 36038 ft | 418 kts | 249° |
| 2026-05-06 11:11 | 49.39784 | 72.46405 | 36039 ft | 418 kts | 249° |
| 2026-05-06 11:11 | 49.37205 | 72.38438 | 36045 ft | 419 kts | 249° |
| 2026-05-06 11:12 | 49.34594 | 72.30437 | 36036 ft | 420 kts | 249° |
| 2026-05-06 11:12 | 49.31976 | 72.22426 | 36034 ft | 421 kts | 249° |
| 2026-05-06 11:13 | 49.29356 | 72.14408 | 36043 ft | 421 kts | 249° |
| 2026-05-06 11:13 | 49.26726 | 72.06397 | 36046 ft | 421 kts | 249° |
| 2026-05-06 11:14 | 49.24088 | 71.98388 | 36048 ft | 422 kts | 249° |
| 2026-05-06 11:14 | 49.21445 | 71.90380 | 36019 ft | 422 kts | 249° |
| 2026-05-06 11:15 | 49.18787 | 71.82360 | 36024 ft | 423 kts | 249° |
| 2026-05-06 11:15 | 49.16117 | 71.74340 | 36021 ft | 424 kts | 249° |
| 2026-05-06 11:16 | 49.13443 | 71.66313 | 36033 ft | 424 kts | 249° |
| 2026-05-06 11:16 | 49.10760 | 71.58273 | 36046 ft | 425 kts | 249° |
| 2026-05-06 11:17 | 49.08072 | 71.50240 | 36047 ft | 425 kts | 249° |
| 2026-05-06 11:17 | 49.05363 | 71.42220 | 36049 ft | 425 kts | 249° |
| 2026-05-06 11:18 | 49.02651 | 71.34208 | 36046 ft | 425 kts | 249° |
| 2026-05-06 11:18 | 48.99936 | 71.26188 | 36044 ft | 425 kts | 249° |
| 2026-05-06 11:19 | 48.97216 | 71.18193 | 36039 ft | 425 kts | 248° |
| 2026-05-06 11:19 | 48.94496 | 71.10205 | 36045 ft | 425 kts | 248° |
| 2026-05-06 11:20 | 48.91774 | 71.02216 | 36038 ft | 425 kts | 248° |
| 2026-05-06 11:20 | 48.89055 | 70.94302 | 36038 ft | 425 kts | 248° |
| 2026-05-06 11:21 | 48.86311 | 70.86342 | 36036 ft | 425 kts | 248° |
| 2026-05-06 11:21 | 48.83570 | 70.78397 | 36030 ft | 425 kts | 247° |
| 2026-05-06 11:22 | 48.80824 | 70.70464 | 36027 ft | 425 kts | 247° |
| 2026-05-06 11:22 | 48.78064 | 70.62539 | 36029 ft | 424 kts | 247° |
| 2026-05-06 11:23 | 48.75310 | 70.54626 | 36015 ft | 425 kts | 247° |
| 2026-05-06 11:23 | 48.72547 | 70.46708 | 35989 ft | 425 kts | 246° |
| 2026-05-06 11:24 | 48.69761 | 70.38805 | 35999 ft | 426 kts | 246° |
| 2026-05-06 11:24 | 48.66959 | 70.30915 | 35998 ft | 426 kts | 246° |
| 2026-05-06 11:25 | 48.64152 | 70.23034 | 36005 ft | 426 kts | 246° |
| 2026-05-06 11:25 | 48.61338 | 70.15151 | 36007 ft | 426 kts | 246° |
| 2026-05-06 11:26 | 48.58543 | 70.07328 | 36007 ft | 425 kts | 245° |
| 2026-05-06 11:26 | 48.55720 | 69.99482 | 36019 ft | 425 kts | 245° |
| 2026-05-06 11:27 | 48.52891 | 69.91645 | 36022 ft | 425 kts | 245° |
| 2026-05-06 11:27 | 48.50066 | 69.83830 | 36023 ft | 424 kts | 245° |
| 2026-05-06 11:28 | 48.47241 | 69.76028 | 36021 ft | 424 kts | 245° |
| 2026-05-06 11:28 | 48.44415 | 69.68234 | 36021 ft | 423 kts | 245° |
| 2026-05-06 11:29 | 48.41583 | 69.60466 | 36025 ft | 423 kts | 245° |
| 2026-05-06 11:29 | 48.38752 | 69.52732 | 36026 ft | 422 kts | 245° |
| 2026-05-06 11:30 | 48.35919 | 69.44990 | 36023 ft | 422 kts | 245° |
| 2026-05-06 11:30 | 48.33083 | 69.37267 | 36008 ft | 422 kts | 244° |
| 2026-05-06 11:31 | 48.30242 | 69.29567 | 36009 ft | 421 kts | 244° |
| 2026-05-06 11:31 | 48.27418 | 69.21932 | 36018 ft | 421 kts | 244° |
| 2026-05-06 11:32 | 48.24571 | 69.14263 | 36024 ft | 420 kts | 244° |
| 2026-05-06 11:32 | 48.21716 | 69.06599 | 36026 ft | 420 kts | 244° |
| 2026-05-06 11:33 | 48.18861 | 68.98957 | 36029 ft | 420 kts | 244° |
| 2026-05-06 11:33 | 48.16018 | 68.91335 | 36034 ft | 419 kts | 244° |
| 2026-05-06 11:34 | 48.13175 | 68.83741 | 36035 ft | 418 kts | 243° |
| 2026-05-06 11:34 | 48.10781 | 68.77392 | 36034 ft | 417 kts | 243° |
| 2026-05-06 11:35 | 48.07926 | 68.69835 | 36032 ft | 417 kts | 243° |
| 2026-05-06 11:35 | 48.05098 | 68.62329 | 36031 ft | 416 kts | 243° |
| 2026-05-06 11:36 | 48.02259 | 68.54793 | 36032 ft | 416 kts | 243° |
| 2026-05-06 11:36 | 47.99420 | 68.47268 | 36033 ft | 416 kts | 243° |
| 2026-05-06 11:37 | 47.96570 | 68.39752 | 36036 ft | 416 kts | 243° |
| 2026-05-06 11:37 | 47.93720 | 68.32253 | 36035 ft | 415 kts | 243° |
| 2026-05-06 11:38 | 47.90865 | 68.24776 | 36038 ft | 414 kts | 243° |
| 2026-05-06 11:38 | 47.88017 | 68.17321 | 36040 ft | 414 kts | 243° |
| 2026-05-06 11:39 | 47.85164 | 68.09880 | 36040 ft | 413 kts | 243° |
| 2026-05-06 11:39 | 47.82314 | 68.02462 | 36028 ft | 413 kts | 243° |
| 2026-05-06 11:40 | 47.79458 | 67.95059 | 36026 ft | 412 kts | 243° |
| 2026-05-06 11:40 | 47.76601 | 67.87666 | 36026 ft | 412 kts | 243° |
| 2026-05-06 11:41 | 47.73738 | 67.80292 | 36281 ft | 412 kts | 242° |
| 2026-05-06 11:41 | 47.72055 | 67.76820 | 36637 ft | 415 kts | 232° |
| 2026-05-06 11:41 | 47.69962 | 67.73851 | 36944 ft | 420 kts | 221° |
| 2026-05-06 11:41 | 47.67586 | 67.71309 | 37223 ft | 421 kts | 219° |
| 2026-05-06 11:42 | 47.65193 | 67.68794 | 37506 ft | 422 kts | 219° |
| 2026-05-06 11:42 | 47.62803 | 67.66278 | 37789 ft | 422 kts | 219° |
| 2026-05-06 11:42 | 47.60407 | 67.63751 | 37983 ft | 422 kts | 219° |
| 2026-05-06 11:43 | 47.55624 | 67.58711 | 38006 ft | 422 kts | 219° |
| 2026-05-06 11:43 | 47.50830 | 67.53671 | 37999 ft | 422 kts | 219° |
| 2026-05-06 11:44 | 47.43635 | 67.46121 | 38014 ft | 423 kts | 219° |
| 2026-05-06 11:44 | 47.38828 | 67.41084 | 38004 ft | 423 kts | 219° |
| 2026-05-06 11:45 | 47.34023 | 67.36067 | 38019 ft | 423 kts | 218° |
| 2026-05-06 11:45 | 47.29219 | 67.31061 | 38027 ft | 423 kts | 218° |
| 2026-05-06 11:46 | 47.24443 | 67.26103 | 38027 ft | 423 kts | 218° |
| 2026-05-06 11:46 | 47.19637 | 67.21127 | 38013 ft | 422 kts | 218° |
| 2026-05-06 11:47 | 47.14829 | 67.16154 | 38016 ft | 423 kts | 218° |
| 2026-05-06 11:47 | 47.10019 | 67.11197 | 38022 ft | 422 kts | 218° |
| 2026-05-06 11:48 | 47.05216 | 67.06250 | 38018 ft | 422 kts | 218° |
| 2026-05-06 11:48 | 47.00418 | 67.01313 | 38017 ft | 421 kts | 218° |
| 2026-05-06 11:49 | 46.95612 | 66.96394 | 38014 ft | 421 kts | 218° |
| 2026-05-06 11:49 | 46.90808 | 66.91482 | 38009 ft | 421 kts | 218° |
| 2026-05-06 11:50 | 46.86035 | 66.86621 | 38008 ft | 421 kts | 218° |
| 2026-05-06 11:50 | 46.81231 | 66.81743 | 38008 ft | 421 kts | 218° |
| 2026-05-06 11:51 | 46.76392 | 66.76840 | 38000 ft | 420 kts | 218° |
| 2026-05-06 11:51 | 46.71620 | 66.72002 | 38001 ft | 420 kts | 218° |
| 2026-05-06 11:52 | 46.66817 | 66.67149 | 38000 ft | 420 kts | 218° |
| 2026-05-06 11:52 | 46.62007 | 66.62307 | 37984 ft | 420 kts | 218° |
| 2026-05-06 11:53 | 46.57202 | 66.57473 | 37983 ft | 420 kts | 218° |
| 2026-05-06 11:53 | 46.52392 | 66.52654 | 37984 ft | 420 kts | 218° |
| 2026-05-06 11:54 | 46.47584 | 66.47833 | 37979 ft | 420 kts | 218° |
| 2026-05-06 11:54 | 46.42771 | 66.43030 | 37984 ft | 420 kts | 218° |
| 2026-05-06 11:55 | 46.37963 | 66.38240 | 37985 ft | 419 kts | 218° |
| 2026-05-06 11:55 | 46.33163 | 66.33442 | 37965 ft | 419 kts | 218° |
| 2026-05-06 11:56 | 46.28359 | 66.28660 | 37964 ft | 419 kts | 218° |
| 2026-05-06 11:56 | 46.23542 | 66.23896 | 37969 ft | 420 kts | 218° |
| 2026-05-06 11:57 | 46.18720 | 66.19136 | 37974 ft | 419 kts | 218° |
| 2026-05-06 11:57 | 46.13912 | 66.14397 | 37974 ft | 418 kts | 218° |
| 2026-05-06 11:58 | 46.09111 | 66.09672 | 37959 ft | 418 kts | 218° |
| 2026-05-06 11:58 | 46.04310 | 66.04957 | 37956 ft | 418 kts | 218° |
| 2026-05-06 11:59 | 45.99530 | 66.00281 | 37956 ft | 418 kts | 218° |
| 2026-05-06 11:59 | 45.94728 | 65.95576 | 37981 ft | 416 kts | 218° |
| 2026-05-06 12:00 | 45.89962 | 65.90918 | 37947 ft | 411 kts | 218° |
| 2026-05-06 12:00 | 45.85249 | 65.86337 | 37949 ft | 408 kts | 218° |
| 2026-05-06 12:01 | 45.80556 | 65.81767 | 37926 ft | 408 kts | 218° |
| 2026-05-06 12:01 | 45.75838 | 65.77177 | 37945 ft | 411 kts | 218° |
| 2026-05-06 12:02 | 45.71108 | 65.72616 | 37935 ft | 407 kts | 218° |
| 2026-05-06 12:02 | 45.66421 | 65.68094 | 37953 ft | 407 kts | 218° |
| 2026-05-06 12:03 | 45.61728 | 65.63567 | 37957 ft | 407 kts | 218° |
| 2026-05-06 12:03 | 45.57032 | 65.59050 | 37960 ft | 407 kts | 218° |
| 2026-05-06 12:04 | 45.52337 | 65.54545 | 37926 ft | 407 kts | 218° |
| 2026-05-06 12:04 | 45.47626 | 65.50040 | 37926 ft | 408 kts | 218° |
| 2026-05-06 12:05 | 45.42901 | 65.45527 | 37931 ft | 409 kts | 218° |
| 2026-05-06 12:05 | 45.38165 | 65.41013 | 37936 ft | 410 kts | 218° |
| 2026-05-06 12:06 | 45.33428 | 65.36492 | 37941 ft | 410 kts | 218° |
| 2026-05-06 12:06 | 45.28677 | 65.31977 | 37938 ft | 411 kts | 217° |
| 2026-05-06 12:07 | 45.23917 | 65.27478 | 37939 ft | 411 kts | 218° |
| 2026-05-06 12:07 | 45.19158 | 65.22981 | 37941 ft | 411 kts | 218° |
| 2026-05-06 12:08 | 45.14392 | 65.18478 | 37942 ft | 412 kts | 218° |
| 2026-05-06 12:08 | 45.09630 | 65.13988 | 37944 ft | 412 kts | 218° |
| 2026-05-06 12:09 | 45.04851 | 65.09502 | 37943 ft | 412 kts | 217° |
| 2026-05-06 12:09 | 45.00084 | 65.05030 | 37950 ft | 411 kts | 217° |
| 2026-05-06 12:10 | 44.95315 | 65.00565 | 37937 ft | 411 kts | 217° |
| 2026-05-06 12:10 | 44.90573 | 64.96127 | 37943 ft | 412 kts | 217° |
| 2026-05-06 12:11 | 44.85800 | 64.91663 | 37943 ft | 412 kts | 217° |
| 2026-05-06 12:11 | 44.81021 | 64.87217 | 37947 ft | 411 kts | 217° |
| 2026-05-06 12:12 | 44.76254 | 64.82782 | 37943 ft | 410 kts | 217° |
| 2026-05-06 12:12 | 44.71488 | 64.78369 | 37932 ft | 410 kts | 217° |
| 2026-05-06 12:13 | 44.66722 | 64.73956 | 37923 ft | 411 kts | 217° |
| 2026-05-06 12:13 | 44.61942 | 64.69542 | 37924 ft | 411 kts | 217° |
| 2026-05-06 12:14 | 44.57164 | 64.65147 | 37940 ft | 410 kts | 217° |
| 2026-05-06 12:14 | 44.52394 | 64.60767 | 37939 ft | 410 kts | 217° |
| 2026-05-06 12:15 | 44.47632 | 64.56397 | 37936 ft | 409 kts | 217° |
| 2026-05-06 12:15 | 44.42871 | 64.52038 | 37923 ft | 409 kts | 217° |
| 2026-05-06 12:16 | 44.38106 | 64.47680 | 37924 ft | 409 kts | 216° |
| 2026-05-06 12:16 | 44.34143 | 64.44064 | 37930 ft | 409 kts | 216° |
| 2026-05-06 12:17 | 44.29376 | 64.39721 | 37932 ft | 409 kts | 216° |
| 2026-05-06 12:17 | 44.24610 | 64.35391 | 37929 ft | 408 kts | 216° |
| 2026-05-06 12:18 | 44.19850 | 64.31075 | 37926 ft | 408 kts | 216° |
| 2026-05-06 12:18 | 44.15096 | 64.26761 | 37922 ft | 408 kts | 216° |
| 2026-05-06 12:19 | 44.10342 | 64.22458 | 37923 ft | 408 kts | 216° |
| 2026-05-06 12:19 | 44.05594 | 64.18175 | 37925 ft | 408 kts | 216° |
| 2026-05-06 12:20 | 44.00831 | 64.13886 | 37919 ft | 408 kts | 216° |
| 2026-05-06 12:20 | 43.96064 | 64.09604 | 37917 ft | 408 kts | 216° |
| 2026-05-06 12:21 | 43.91306 | 64.05334 | 37903 ft | 408 kts | 216° |
| 2026-05-06 12:21 | 43.86529 | 64.01062 | 37905 ft | 408 kts | 215° |
| 2026-05-06 12:22 | 43.81749 | 63.96801 | 37908 ft | 409 kts | 215° |
| 2026-05-06 12:22 | 43.76967 | 63.92541 | 37908 ft | 409 kts | 215° |
| 2026-05-06 12:23 | 43.72208 | 63.88307 | 37916 ft | 409 kts | 215° |
| 2026-05-06 12:23 | 43.67389 | 63.84026 | 37884 ft | 409 kts | 215° |
| 2026-05-06 12:24 | 43.62869 | 63.79405 | 37885 ft | 406 kts | 227° |
| 2026-05-06 12:24 | 43.59194 | 63.73511 | 37888 ft | 405 kts | 231° |
| 2026-05-06 12:25 | 43.55542 | 63.67569 | 37895 ft | 406 kts | 231° |
| 2026-05-06 12:25 | 43.51886 | 63.61639 | 37908 ft | 406 kts | 231° |
| 2026-05-06 12:26 | 43.48224 | 63.55724 | 37908 ft | 406 kts | 230° |
| 2026-05-06 12:26 | 43.44550 | 63.49833 | 37908 ft | 406 kts | 230° |
| 2026-05-06 12:27 | 43.40868 | 63.43951 | 37908 ft | 406 kts | 230° |
| 2026-05-06 12:27 | 43.37187 | 63.38067 | 37907 ft | 406 kts | 230° |
| 2026-05-06 12:28 | 43.33501 | 63.32186 | 37886 ft | 406 kts | 230° |
| 2026-05-06 12:28 | 43.29807 | 63.26305 | 37891 ft | 407 kts | 230° |
| 2026-05-06 12:29 | 43.26114 | 63.20411 | 37897 ft | 407 kts | 231° |
| 2026-05-06 12:29 | 43.22422 | 63.14517 | 37906 ft | 407 kts | 230° |
| 2026-05-06 12:30 | 43.18723 | 63.08645 | 37908 ft | 407 kts | 230° |
| 2026-05-06 12:30 | 43.15016 | 63.02787 | 37904 ft | 406 kts | 230° |
| 2026-05-06 12:31 | 43.11316 | 62.96934 | 37899 ft | 406 kts | 230° |
| 2026-05-06 12:31 | 43.07623 | 62.91090 | 37904 ft | 406 kts | 230° |
| 2026-05-06 12:32 | 43.03923 | 62.85264 | 37901 ft | 406 kts | 230° |
| 2026-05-06 12:32 | 43.00233 | 62.79490 | 37889 ft | 406 kts | 230° |
| 2026-05-06 12:33 | 42.96503 | 62.73701 | 37884 ft | 406 kts | 230° |
| 2026-05-06 12:33 | 42.92771 | 62.67909 | 37894 ft | 406 kts | 230° |
| 2026-05-06 12:34 | 42.89040 | 62.62122 | 37897 ft | 406 kts | 230° |
| 2026-05-06 12:34 | 42.85302 | 62.56342 | 37894 ft | 406 kts | 230° |
| 2026-05-06 12:35 | 42.81561 | 62.50571 | 37896 ft | 406 kts | 230° |
| 2026-05-06 12:35 | 42.77822 | 62.44811 | 37893 ft | 406 kts | 230° |
| 2026-05-06 12:36 | 42.74081 | 62.39052 | 37901 ft | 405 kts | 230° |
| 2026-05-06 12:36 | 42.70343 | 62.33313 | 37898 ft | 405 kts | 230° |
| 2026-05-06 12:37 | 42.66600 | 62.27590 | 37879 ft | 405 kts | 230° |
| 2026-05-06 12:37 | 42.62854 | 62.21877 | 37884 ft | 405 kts | 230° |
| 2026-05-06 12:38 | 42.59115 | 62.16164 | 37894 ft | 404 kts | 230° |
| 2026-05-06 12:38 | 42.55377 | 62.10468 | 37892 ft | 404 kts | 230° |
| 2026-05-06 12:39 | 42.51634 | 62.04790 | 37889 ft | 404 kts | 230° |
| 2026-05-06 12:39 | 42.47893 | 61.99123 | 37882 ft | 403 kts | 230° |
| 2026-05-06 12:40 | 42.44155 | 61.93456 | 37889 ft | 403 kts | 230° |
| 2026-05-06 12:40 | 42.40424 | 61.87809 | 37888 ft | 402 kts | 230° |
| 2026-05-06 12:41 | 42.36709 | 61.82207 | 37882 ft | 401 kts | 230° |
| 2026-05-06 12:41 | 42.32986 | 61.76609 | 37865 ft | 401 kts | 230° |
| 2026-05-06 12:42 | 42.29257 | 61.71002 | 37861 ft | 401 kts | 230° |
| 2026-05-06 12:42 | 42.25526 | 61.65399 | 37865 ft | 401 kts | 230° |
| 2026-05-06 12:43 | 42.21781 | 61.59809 | 37866 ft | 402 kts | 230° |
| 2026-05-06 12:43 | 42.18034 | 61.54217 | 37863 ft | 402 kts | 230° |
| 2026-05-06 12:44 | 42.14286 | 61.48625 | 37860 ft | 402 kts | 230° |
| 2026-05-06 12:44 | 42.10530 | 61.43029 | 37861 ft | 402 kts | 230° |
| 2026-05-06 12:45 | 42.06791 | 61.37478 | 37862 ft | 403 kts | 230° |
| 2026-05-06 12:46 | 42.01145 | 61.29094 | 37850 ft | 403 kts | 230° |
| 2026-05-06 12:46 | 41.97390 | 61.23506 | 37877 ft | 402 kts | 230° |
| 2026-05-06 12:47 | 41.93643 | 61.17956 | 37869 ft | 400 kts | 230° |
| 2026-05-06 12:47 | 41.89905 | 61.12424 | 37868 ft | 400 kts | 230° |
| 2026-05-06 12:48 | 41.86168 | 61.06909 | 37864 ft | 399 kts | 230° |
| 2026-05-06 12:48 | 41.82430 | 61.01399 | 37864 ft | 399 kts | 230° |
| 2026-05-06 12:49 | 41.78690 | 60.95899 | 37864 ft | 399 kts | 230° |
| 2026-05-06 12:49 | 41.74950 | 60.90403 | 37851 ft | 399 kts | 230° |
| 2026-05-06 12:50 | 41.71207 | 60.84914 | 37845 ft | 399 kts | 230° |
| 2026-05-06 12:50 | 41.67459 | 60.79435 | 37811 ft | 399 kts | 230° |
| 2026-05-06 12:51 | 41.63701 | 60.73951 | 37812 ft | 400 kts | 230° |
| 2026-05-06 12:51 | 41.59938 | 60.68471 | 37819 ft | 400 kts | 230° |
| 2026-05-06 12:52 | 41.55701 | 60.63644 | 37821 ft | 405 kts | 216° |
| 2026-05-06 12:52 | 41.50949 | 60.59681 | 37825 ft | 405 kts | 216° |
| 2026-05-06 12:53 | 41.46182 | 60.55677 | 37821 ft | 405 kts | 216° |
| 2026-05-06 12:53 | 41.41414 | 60.51680 | 37790 ft | 405 kts | 216° |
| 2026-05-06 12:54 | 41.36638 | 60.47695 | 37801 ft | 405 kts | 216° |
| 2026-05-06 12:54 | 41.31857 | 60.43717 | 37806 ft | 405 kts | 216° |
| 2026-05-06 12:55 | 41.27030 | 60.39819 | 37805 ft | 406 kts | 214° |
| 2026-05-06 12:55 | 41.22112 | 60.36076 | 37808 ft | 407 kts | 214° |
| 2026-05-06 12:56 | 41.17200 | 60.32366 | 37803 ft | 406 kts | 214° |
| 2026-05-06 12:56 | 41.12293 | 60.28627 | 37808 ft | 406 kts | 214° |
| 2026-05-06 12:57 | 41.07402 | 60.24879 | 37802 ft | 406 kts | 214° |
| 2026-05-06 12:57 | 41.02510 | 60.21132 | 37799 ft | 406 kts | 214° |
| 2026-05-06 12:58 | 40.97633 | 60.17383 | 37800 ft | 405 kts | 214° |
| 2026-05-06 12:58 | 40.92783 | 60.13664 | 37774 ft | 405 kts | 214° |
| 2026-05-06 12:59 | 40.87907 | 60.09924 | 37782 ft | 405 kts | 214° |
| 2026-05-06 12:59 | 40.83023 | 60.06191 | 37783 ft | 405 kts | 214° |
| 2026-05-06 13:00 | 40.78141 | 60.02471 | 37784 ft | 405 kts | 214° |
| 2026-05-06 13:00 | 40.73258 | 59.98747 | 37768 ft | 405 kts | 214° |
| 2026-05-06 13:01 | 40.68378 | 59.95045 | 37769 ft | 405 kts | 214° |
| 2026-05-06 13:01 | 40.63493 | 59.91341 | 37770 ft | 405 kts | 214° |
| 2026-05-06 13:02 | 40.59423 | 59.88254 | 37777 ft | 406 kts | 214° |
| 2026-05-06 13:02 | 40.54531 | 59.84550 | 37778 ft | 406 kts | 214° |
| 2026-05-06 13:03 | 40.49641 | 59.80856 | 37780 ft | 406 kts | 214° |
| 2026-05-06 13:03 | 40.44736 | 59.77167 | 37748 ft | 406 kts | 214° |
| 2026-05-06 13:04 | 40.39834 | 59.73485 | 37762 ft | 406 kts | 214° |
| 2026-05-06 13:04 | 40.34926 | 59.69811 | 37775 ft | 406 kts | 214° |
| 2026-05-06 13:05 | 40.30014 | 59.66144 | 37774 ft | 406 kts | 214° |
| 2026-05-06 13:05 | 40.25099 | 59.62471 | 37775 ft | 406 kts | 214° |
| 2026-05-06 13:06 | 40.20189 | 59.58808 | 37764 ft | 406 kts | 214° |
| 2026-05-06 13:06 | 40.15286 | 59.55164 | 37762 ft | 406 kts | 214° |
| 2026-05-06 13:07 | 40.10378 | 59.51514 | 37765 ft | 405 kts | 214° |
| 2026-05-06 13:07 | 40.05467 | 59.47876 | 37780 ft | 405 kts | 214° |
| 2026-05-06 13:08 | 40.00562 | 59.44244 | 37765 ft | 405 kts | 214° |
| 2026-05-06 13:08 | 39.95687 | 59.40639 | 37750 ft | 405 kts | 214° |
| 2026-05-06 13:09 | 39.90745 | 59.36996 | 37761 ft | 405 kts | 214° |
| 2026-05-06 13:09 | 39.85844 | 59.33374 | 37754 ft | 405 kts | 214° |
| 2026-05-06 13:10 | 39.80985 | 59.29751 | 37763 ft | 405 kts | 214° |
| 2026-05-06 13:10 | 39.76104 | 59.26116 | 37765 ft | 405 kts | 214° |
| 2026-05-06 13:11 | 39.71207 | 59.22486 | 37761 ft | 405 kts | 214° |
| 2026-05-06 13:11 | 39.66303 | 59.18862 | 37732 ft | 405 kts | 214° |
| 2026-05-06 13:12 | 39.61396 | 59.15229 | 37738 ft | 406 kts | 214° |
| 2026-05-06 13:12 | 39.56483 | 59.11603 | 37748 ft | 406 kts | 214° |
| 2026-05-06 13:13 | 39.51561 | 59.07988 | 37618 ft | 407 kts | 214° |
| 2026-05-06 13:13 | 39.49089 | 59.06196 | 37346 ft | 407 kts | 213° |
| 2026-05-06 13:13 | 39.46586 | 59.04392 | 37078 ft | 407 kts | 213° |
| 2026-05-06 13:13 | 39.44114 | 59.02611 | 36802 ft | 408 kts | 214° |
| 2026-05-06 13:14 | 39.41629 | 59.00822 | 36544 ft | 408 kts | 214° |
| 2026-05-06 13:14 | 39.39149 | 58.99032 | 36289 ft | 409 kts | 214° |
| 2026-05-06 13:14 | 39.36672 | 58.97240 | 36042 ft | 409 kts | 214° |
| 2026-05-06 13:14 | 39.34181 | 58.95441 | 35786 ft | 410 kts | 214° |
| 2026-05-06 13:15 | 39.31722 | 58.93675 | 35542 ft | 410 kts | 214° |
| 2026-05-06 13:15 | 39.29228 | 58.91883 | 35298 ft | 411 kts | 214° |
| 2026-05-06 13:15 | 39.26690 | 58.90061 | 34552 ft | 414 kts | 214° |
| 2026-05-06 13:15 | 39.24196 | 58.88267 | 33716 ft | 418 kts | 214° |
| 2026-05-06 13:16 | 39.21646 | 58.86431 | 32690 ft | 422 kts | 213° |
| 2026-05-06 13:16 | 39.19068 | 58.84577 | 31659 ft | 425 kts | 213° |
| 2026-05-06 13:16 | 39.16472 | 58.82710 | 30665 ft | 428 kts | 213° |
| 2026-05-06 13:16 | 39.13863 | 58.80836 | 29619 ft | 431 kts | 213° |
| 2026-05-06 13:17 | 39.11242 | 58.78957 | 28722 ft | 428 kts | 213° |
| 2026-05-06 13:17 | 39.08661 | 58.77110 | 28113 ft | 420 kts | 213° |
| 2026-05-06 13:17 | 39.06030 | 58.75504 | 27412 ft | 419 kts | 205° |
| 2026-05-06 13:17 | 39.03259 | 58.74358 | 26720 ft | 416 kts | 202° |
| 2026-05-06 13:18 | 39.00506 | 58.73262 | 26031 ft | 412 kts | 202° |
| 2026-05-06 13:18 | 38.97776 | 58.72171 | 25349 ft | 408 kts | 202° |
| 2026-05-06 13:18 | 38.95076 | 58.71088 | 24673 ft | 405 kts | 202° |
| 2026-05-06 13:18 | 38.92400 | 58.70008 | 24018 ft | 402 kts | 202° |
| 2026-05-06 13:19 | 38.89743 | 58.68933 | 23364 ft | 399 kts | 202° |
| 2026-05-06 13:19 | 38.87107 | 58.67868 | 22664 ft | 395 kts | 202° |
| 2026-05-06 13:19 | 38.84502 | 58.66819 | 22053 ft | 390 kts | 202° |
| 2026-05-06 13:19 | 38.81926 | 58.65786 | 21465 ft | 385 kts | 202° |
| 2026-05-06 13:20 | 38.79389 | 58.64772 | 20908 ft | 381 kts | 201° |
| 2026-05-06 13:20 | 38.76795 | 58.64070 | 20350 ft | 383 kts | 191° |
| 2026-05-06 13:20 | 38.74125 | 58.63900 | 19793 ft | 383 kts | 186° |
| 2026-05-06 13:20 | 38.71470 | 58.63793 | 19228 ft | 381 kts | 186° |
| 2026-05-06 13:21 | 38.68843 | 58.63687 | 18662 ft | 372 kts | 186° |
| 2026-05-06 13:21 | 38.66263 | 58.63583 | 18105 ft | 370 kts | 186° |
| 2026-05-06 13:21 | 38.63699 | 58.63475 | 17477 ft | 367 kts | 186° |
| 2026-05-06 13:21 | 38.61192 | 58.63368 | 16895 ft | 364 kts | 186° |
| 2026-05-06 13:22 | 38.58668 | 58.63261 | 16306 ft | 361 kts | 186° |
| 2026-05-06 13:22 | 38.56171 | 58.63155 | 15704 ft | 357 kts | 186° |
| 2026-05-06 13:22 | 38.53697 | 58.63049 | 15112 ft | 354 kts | 185° |
| 2026-05-06 13:22 | 38.51242 | 58.62947 | 14520 ft | 352 kts | 185° |
| 2026-05-06 13:23 | 38.48801 | 58.62846 | 13927 ft | 350 kts | 185° |
| 2026-05-06 13:23 | 38.46373 | 58.62743 | 13306 ft | 348 kts | 185° |
| 2026-05-06 13:23 | 38.43960 | 58.62639 | 12675 ft | 343 kts | 185° |
| 2026-05-06 13:23 | 38.41627 | 58.62542 | 12101 ft | 326 kts | 185° |
| 2026-05-06 13:24 | 38.39405 | 58.62452 | 11565 ft | 315 kts | 185° |
| 2026-05-06 13:24 | 38.37212 | 58.62360 | 11222 ft | 316 kts | 185° |
| 2026-05-06 13:24 | 38.35012 | 58.62266 | 10725 ft | 317 kts | 185° |
| 2026-05-06 13:24 | 38.32828 | 58.62177 | 10529 ft | 305 kts | 185° |
| 2026-05-06 13:25 | 38.30754 | 58.62091 | 10324 ft | 294 kts | 185° |
| 2026-05-06 13:25 | 38.28724 | 58.62001 | 10081 ft | 289 kts | 185° |
| 2026-05-06 13:25 | 38.26728 | 58.61912 | 9900 ft | 283 kts | 185° |
| 2026-05-06 13:25 | 38.24793 | 58.61831 | 9790 ft | 274 kts | 185° |
| 2026-05-06 13:26 | 38.22922 | 58.61752 | 9672 ft | 265 kts | 185° |
| 2026-05-06 13:26 | 38.21109 | 58.61676 | 9562 ft | 256 kts | 185° |
| 2026-05-06 13:26 | 38.19358 | 58.61604 | 9248 ft | 249 kts | 185° |
| 2026-05-06 13:26 | 38.17647 | 58.61533 | 8744 ft | 248 kts | 184° |
| 2026-05-06 13:27 | 38.15928 | 58.61461 | 8243 ft | 246 kts | 184° |
| 2026-05-06 13:27 | 38.14225 | 58.61389 | 7739 ft | 244 kts | 184° |
| 2026-05-06 13:27 | 38.12534 | 58.61317 | 7235 ft | 243 kts | 183° |
| 2026-05-06 13:27 | 38.10850 | 58.61246 | 6745 ft | 242 kts | 182° |
| 2026-05-06 13:28 | 38.09172 | 58.61174 | 6318 ft | 240 kts | 182° |
| 2026-05-06 13:28 | 38.07507 | 58.61102 | 5840 ft | 239 kts | 182° |
| 2026-05-06 13:28 | 38.05850 | 58.61032 | 5320 ft | 238 kts | 182° |
| 2026-05-06 13:28 | 38.04194 | 58.60963 | 4798 ft | 237 kts | 181° |
| 2026-05-06 13:29 | 38.02548 | 58.60895 | 4285 ft | 237 kts | 181° |
| 2026-05-06 13:29 | 38.00901 | 58.60826 | 3760 ft | 236 kts | 182° |
| 2026-05-06 13:29 | 37.99277 | 58.60759 | 3370 ft | 229 kts | 182° |
| 2026-05-06 13:29 | 37.97717 | 58.60695 | 3209 ft | 221 kts | 182° |
| 2026-05-06 13:30 | 37.96196 | 58.60632 | 3049 ft | 217 kts | 183° |
| 2026-05-06 13:30 | 37.94764 | 58.60244 | 2946 ft | 207 kts | 206° |
| 2026-05-06 13:30 | 37.93620 | 58.59220 | 2897 ft | 200 kts | 228° |
| 2026-05-06 13:30 | 37.92875 | 58.57764 | 2790 ft | 196 kts | 250° |
| 2026-05-06 13:31 | 37.92497 | 58.56112 | 2694 ft | 193 kts | 257° |
| 2026-05-06 13:31 | 37.92143 | 58.54501 | 2618 ft | 186 kts | 258° |
| 2026-05-06 13:31 | 37.92051 | 58.52892 | 2529 ft | 181 kts | 279° |
| 2026-05-06 13:31 | 37.92420 | 58.51425 | 2518 ft | 174 kts | 297° |
| 2026-05-06 13:32 | 37.92983 | 58.50091 | 2518 ft | 168 kts | 299° |
| 2026-05-06 13:32 | 37.93531 | 58.48849 | 2452 ft | 154 kts | 300° |
| 2026-05-06 13:32 | 37.94049 | 58.47686 | 2314 ft | 149 kts | 301° |
| 2026-05-06 13:32 | 37.94550 | 58.46566 | 2118 ft | 144 kts | 300° |
| 2026-05-06 13:33 | 37.95041 | 58.45468 | 1943 ft | 142 kts | 301° |
| 2026-05-06 13:33 | 37.95539 | 58.44370 | 1745 ft | 143 kts | 302° |
| 2026-05-06 13:33 | 37.96025 | 58.43283 | 1589 ft | 140 kts | 300° |
| 2026-05-06 13:33 | 37.96500 | 58.42202 | 1417 ft | 139 kts | 301° |
| 2026-05-06 13:34 | 37.96993 | 58.41136 | 1269 ft | 141 kts | 300° |
| 2026-05-06 13:34 | 37.97458 | 58.40079 | 1094 ft | 137 kts | 300° |
| 2026-05-06 13:34 | 37.97917 | 58.39049 | 876 ft | 134 kts | 299° |
| 2026-05-06 13:34 | 37.98378 | 58.38011 | 713 ft | 136 kts | 300° |
| 2026-05-06 13:35 | 37.98808 | 58.37040 | 680 ft | 106 kts | 300° |
| 2026-05-06 13:35 | 37.99087 | 58.36417 | 676 ft | 56 kts | 299° |
| 2026-05-06 13:35 | 37.99225 | 58.36106 | 680 ft | 30 kts | 299° |
| 2026-05-06 13:35 | 37.99308 | 58.35920 | 679 ft | 24 kts | 299° |
| 2026-05-06 13:36 | 37.99357 | 58.35763 | 680 ft | 16 kts | 275° |
| 2026-05-06 13:36 | 37.99359 | 58.35645 | 679 ft | 15 kts | 271° |
| 2026-05-06 13:36 | 37.99353 | 58.35530 | 678 ft | 10 kts | 251° |
| 2026-05-06 13:36 | 37.99307 | 58.35480 | 678 ft | 9 kts | 191° |
| 2026-05-06 13:37 | 37.99247 | 58.35520 | 678 ft | 11 kts | 128° |
| 2026-05-06 13:37 | 37.99203 | 58.35618 | 678 ft | 14 kts | 120° |
| 2026-05-06 13:37 | 37.99149 | 58.35738 | 676 ft | 17 kts | 119° |
| 2026-05-06 13:37 | 37.99087 | 58.35880 | 678 ft | 20 kts | 119° |
| 2026-05-06 13:38 | 37.99015 | 58.36042 | 678 ft | 19 kts | 119° |
| 2026-05-06 13:38 | 37.98951 | 58.36186 | 676 ft | 18 kts | 119° |
| 2026-05-06 13:38 | 37.98895 | 58.36311 | 676 ft | 16 kts | 120° |
| 2026-05-06 13:38 | 37.98837 | 58.36439 | 678 ft | 18 kts | 119° |
| 2026-05-06 13:39 | 37.98779 | 58.36571 | 678 ft | 16 kts | 118° |
| 2026-05-06 13:39 | 37.98723 | 58.36651 | 678 ft | 13 kts | 163° |
| 2026-05-06 13:39 | 37.98657 | 58.36654 | 678 ft | 10 kts | 157° |
| 2026-05-06 13:39 | 37.98615 | 58.36725 | 678 ft | 11 kts | 118° |
| 2026-05-06 13:40 | 37.98575 | 58.36816 | 676 ft | 13 kts | 119° |
| 2026-05-06 13:40 | 37.98538 | 58.36893 | 678 ft | 9 kts | 139° |
| 2026-05-06 13:40 | 37.98488 | 58.36870 | 678 ft | 9 kts | 211° |
| 2026-05-06 13:40 | 37.98458 | 58.36848 | 678 ft | 2 kts | 210° |
| 2026-05-06 13:41 | 37.98455 | 58.36846 | 678 ft | 0 kts | 210° |